createdAt,value
2018-07-27T00:00:08.998Z,21.40
2018-07-27T00:02:37.144Z,21.40
2018-07-27T00:05:05.984Z,21.40
2018-07-27T00:07:35.060Z,21.40
2018-07-27T00:10:03.740Z,21.40
2018-07-27T00:12:33.076Z,21.40
2018-07-27T00:15:01.264Z,21.40
2018-07-27T00:17:30.212Z,21.40
2018-07-27T00:20:00.488Z,21.30
2018-07-27T00:22:28.627Z,21.20
2018-07-27T00:24:58.603Z,21.30
2018-07-27T00:27:27.115Z,21.40
2018-07-27T00:29:55.272Z,21.40
2018-07-27T00:32:23.484Z,21.40
2018-07-27T00:34:52.600Z,21.30
2018-07-27T00:37:20.992Z,21.30
2018-07-27T00:39:50.041Z,21.30
2018-07-27T00:42:19.480Z,21.20
2018-07-27T00:44:47.648Z,21.20
2018-07-27T00:47:16.716Z,21.10
2018-07-27T00:49:46.026Z,20.90
2018-07-27T00:52:15.200Z,20.80
2018-07-27T00:54:43.368Z,20.60
2018-07-27T00:57:12.023Z,20.50
2018-07-27T00:59:40.165Z,20.30
2018-07-27T01:02:08.336Z,20.40
2018-07-27T01:04:36.516Z,20.40
2018-07-27T01:07:07.024Z,20.30
2018-07-27T01:09:35.216Z,20.30
2018-07-27T01:12:06.075Z,20.20
2018-07-27T01:14:34.237Z,20.20
2018-07-27T01:17:02.820Z,20.30
2018-07-27T01:19:30.988Z,20.20
2018-07-27T01:21:59.152Z,20.30
2018-07-27T01:24:27.352Z,20.30
2018-07-27T01:26:55.540Z,20.30
2018-07-27T01:29:24.336Z,20.30
2018-07-27T01:31:52.472Z,20.20
2018-07-27T01:34:21.329Z,20.00
2018-07-27T01:36:49.503Z,19.80
2018-07-27T01:39:17.656Z,19.70
2018-07-27T01:41:48.332Z,19.70
2018-07-27T01:44:16.487Z,19.70
2018-07-27T01:46:44.664Z,19.70
2018-07-27T01:49:12.814Z,19.90
2018-07-27T01:51:41.514Z,19.80
2018-07-27T01:54:10.610Z,19.80
2018-07-27T01:56:38.759Z,19.80
2018-07-27T01:59:06.916Z,19.80
2018-07-27T02:01:36.028Z,19.70
2018-07-27T02:04:04.517Z,19.80
2018-07-27T02:06:33.796Z,19.70
2018-07-27T02:09:02.572Z,19.70
2018-07-27T02:11:30.747Z,19.70
2018-07-27T02:13:58.896Z,19.80
2018-07-27T02:16:28.000Z,19.80
2018-07-27T02:18:56.347Z,19.80
2018-07-27T02:21:24.453Z,19.80
2018-07-27T02:23:52.642Z,19.80
2018-07-27T02:26:21.259Z,19.70
2018-07-27T02:28:49.928Z,19.70
2018-07-27T02:33:48.409Z,19.80
2018-07-27T02:36:16.541Z,19.80
2018-07-27T02:38:44.792Z,19.90
2018-07-27T02:41:13.289Z,19.70
2018-07-27T02:43:42.057Z,19.70
2018-07-27T02:46:10.274Z,19.70
2018-07-27T02:48:39.012Z,19.80
2018-07-27T02:51:07.428Z,19.70
2018-07-27T02:53:35.597Z,19.60
2018-07-27T02:56:04.747Z,19.50
2018-07-27T02:58:33.944Z,19.50
2018-07-27T03:01:02.142Z,19.30
2018-07-27T03:03:30.295Z,19.20
2018-07-27T03:05:58.663Z,19.30
2018-07-27T03:08:27.149Z,19.30
2018-07-27T03:10:55.348Z,19.30
2018-07-27T03:13:23.523Z,19.40
2018-07-27T03:15:51.674Z,19.30
2018-07-27T03:18:19.823Z,19.20
2018-07-27T03:20:47.949Z,19.00
2018-07-27T03:23:16.119Z,19.00
2018-07-27T03:25:44.312Z,19.00
2018-07-27T03:28:12.793Z,19.00
2018-07-27T03:30:40.927Z,18.90
2018-07-27T03:33:09.688Z,19.00
2018-07-27T03:35:37.847Z,19.20
2018-07-27T03:38:06.023Z,19.30
2018-07-27T03:40:35.080Z,19.30
2018-07-27T03:43:03.887Z,19.40
2018-07-27T03:45:32.360Z,19.50
2018-07-27T03:48:05.300Z,19.60
2018-07-27T03:50:33.908Z,19.50
2018-07-27T03:53:03.200Z,19.40
2018-07-27T03:55:31.552Z,19.30
2018-07-27T03:57:59.800Z,19.30
2018-07-27T04:00:28.453Z,19.40
2018-07-27T04:02:57.611Z,19.30
2018-07-27T04:05:26.576Z,19.30
2018-07-27T04:07:54.768Z,19.30
2018-07-27T04:10:22.930Z,19.30
2018-07-27T04:12:51.088Z,19.20
2018-07-27T04:15:19.296Z,19.20
2018-07-27T04:17:58.197Z,19.40
2018-07-27T04:20:27.159Z,19.50
2018-07-27T04:22:55.334Z,19.60
2018-07-27T04:25:23.555Z,19.80
2018-07-27T04:27:52.264Z,19.90
2018-07-27T04:30:20.739Z,20.10
2018-07-27T04:32:49.816Z,20.20
2018-07-27T04:35:18.042Z,20.30
2018-07-27T04:37:46.216Z,20.40
2018-07-27T04:40:15.948Z,20.50
2018-07-27T04:42:44.441Z,20.50
2018-07-27T04:45:13.561Z,20.60
2018-07-27T04:47:41.724Z,20.70
2018-07-27T04:50:09.884Z,20.90
2018-07-27T04:52:38.062Z,21.10
2018-07-27T04:55:07.079Z,21.30
2018-07-27T04:57:35.260Z,21.40
2018-07-27T05:00:04.750Z,21.70
2018-07-27T05:02:34.186Z,21.90
2018-07-27T05:05:03.207Z,22.10
2018-07-27T05:07:31.383Z,22.20
2018-07-27T05:09:59.521Z,22.30
2018-07-27T05:12:27.665Z,22.20
2018-07-27T05:14:57.062Z,22.30
2018-07-27T05:17:25.176Z,22.70
2018-07-27T05:19:54.613Z,23.10
2018-07-27T05:22:23.344Z,23.60
2018-07-27T05:24:51.530Z,24.10
2018-07-27T05:27:19.704Z,24.40
2018-07-27T05:29:47.860Z,24.70
2018-07-27T05:32:16.318Z,24.80
2018-07-27T05:34:44.484Z,25.00
2018-07-27T05:37:12.705Z,25.30
2018-07-27T05:39:40.863Z,25.60
2018-07-27T05:42:09.628Z,25.90
2018-07-27T05:44:37.980Z,26.20
2018-07-27T05:47:06.572Z,26.50
2018-07-27T05:49:35.760Z,26.80
2018-07-27T05:52:03.929Z,26.80
2018-07-27T05:54:32.672Z,27.00
2018-07-27T05:57:00.845Z,27.40
2018-07-27T05:59:30.250Z,27.70
2018-07-27T06:01:58.569Z,27.80
2018-07-27T06:04:27.912Z,28.00
2018-07-27T06:06:56.151Z,28.40
2018-07-27T06:09:25.311Z,28.70
2018-07-27T06:11:53.463Z,29.00
2018-07-27T06:14:22.340Z,29.40
2018-07-27T06:16:50.527Z,29.80
2018-07-27T06:19:18.812Z,30.20
2018-07-27T06:21:47.651Z,30.70
2018-07-27T06:24:17.104Z,30.60
2018-07-27T06:26:45.200Z,30.80
2018-07-27T06:29:14.199Z,31.00
2018-07-27T06:31:43.705Z,31.40
2018-07-27T06:34:12.202Z,31.80
2018-07-27T06:36:40.713Z,31.80
2018-07-27T06:39:10.822Z,31.60
2018-07-27T06:41:39.312Z,32.00
2018-07-27T06:44:08.384Z,32.30
2018-07-27T06:46:36.580Z,32.60
2018-07-27T06:49:04.836Z,33.00
2018-07-27T06:51:32.963Z,33.40
2018-07-27T06:54:01.114Z,33.50
2018-07-27T06:56:29.232Z,33.80
2018-07-27T06:58:59.061Z,33.90
2018-07-27T07:01:27.445Z,34.00
2018-07-27T07:03:55.605Z,34.20
2018-07-27T07:06:23.737Z,34.50
2018-07-27T07:08:51.872Z,34.70
2018-07-27T07:11:20.049Z,34.80
2018-07-27T07:13:48.199Z,35.10
2018-07-27T07:16:17.539Z,35.50
2018-07-27T07:18:46.132Z,35.60
2018-07-27T07:21:15.013Z,35.90
2018-07-27T07:23:48.181Z,35.90
2018-07-27T07:26:16.384Z,35.50
2018-07-27T07:28:44.549Z,35.60
2018-07-27T07:31:13.718Z,35.70
2018-07-27T07:33:41.904Z,36.10
2018-07-27T07:36:10.921Z,36.60
2018-07-27T07:38:41.522Z,36.80
2018-07-27T07:41:09.669Z,36.50
2018-07-27T07:43:38.816Z,36.50
2018-07-27T07:46:10.962Z,36.30
2018-07-27T07:48:39.446Z,36.90
2018-07-27T07:51:08.979Z,37.00
2018-07-27T07:53:37.137Z,36.70
2018-07-27T07:56:05.352Z,36.90
2018-07-27T07:58:33.876Z,37.10
2018-07-27T08:01:02.016Z,37.50
2018-07-27T08:03:30.844Z,37.90
2018-07-27T08:06:00.000Z,38.30
2018-07-27T08:08:28.153Z,38.70
2018-07-27T08:10:56.625Z,38.80
2018-07-27T08:13:26.852Z,38.30
2018-07-27T08:15:55.468Z,38.40
2018-07-27T08:18:24.108Z,38.60
2018-07-27T08:20:53.039Z,38.40
2018-07-27T08:23:21.184Z,38.90
2018-07-27T08:26:55.092Z,39.40
2018-07-27T08:29:40.557Z,39.40
2018-07-27T08:32:08.905Z,38.60
2018-07-27T08:34:37.835Z,39.20
2018-07-27T08:37:08.083Z,39.70
2018-07-27T08:39:37.463Z,38.60
2018-07-27T08:42:05.870Z,38.30
2018-07-27T08:44:35.448Z,37.20
2018-07-27T08:47:03.735Z,36.30
2018-07-27T08:49:32.556Z,35.50
2018-07-27T08:52:00.755Z,35.10
2018-07-27T08:54:29.264Z,35.30
2018-07-27T08:56:57.376Z,35.70
2018-07-27T08:59:25.543Z,35.40
2018-07-27T09:01:53.807Z,34.70
2018-07-27T09:04:22.760Z,34.50
2018-07-27T09:06:51.004Z,34.90
2018-07-27T09:09:20.049Z,35.10
2018-07-27T09:11:48.331Z,35.30
2018-07-27T09:14:17.363Z,35.00
2018-07-27T09:16:47.244Z,34.30
2018-07-27T09:19:15.396Z,34.00
2018-07-27T09:21:44.779Z,34.00
2018-07-27T09:24:12.989Z,33.80
2018-07-27T09:26:42.424Z,33.90
2018-07-27T09:29:12.105Z,34.00
2018-07-27T09:31:41.104Z,34.10
2018-07-27T09:34:10.293Z,34.40
2018-07-27T09:36:38.455Z,34.10
2018-07-27T09:39:09.509Z,33.80
2018-07-27T09:41:38.171Z,33.70
2018-07-27T09:44:07.300Z,34.00
2018-07-27T09:46:35.699Z,34.40
2018-07-27T09:49:03.847Z,34.60
2018-07-27T09:51:32.485Z,34.20
2018-07-27T09:54:00.664Z,34.20
2018-07-27T09:56:28.811Z,34.10
2018-07-27T09:58:56.980Z,34.20
2018-07-27T10:01:30.612Z,34.70
2018-07-27T10:03:58.719Z,34.60
2018-07-27T10:06:26.911Z,34.30
2018-07-27T10:08:55.512Z,34.80
2018-07-27T10:11:24.598Z,35.50
2018-07-27T10:13:54.334Z,35.80
2018-07-27T10:16:22.522Z,35.50
2018-07-27T10:18:51.556Z,36.10
2018-07-27T10:21:20.626Z,36.10
2018-07-27T10:23:49.346Z,35.70
2018-07-27T10:26:18.907Z,35.70
2018-07-27T10:28:48.576Z,36.10
2018-07-27T10:31:18.887Z,36.40
2018-07-27T10:33:47.080Z,36.00
2018-07-27T10:36:18.047Z,35.30
2018-07-27T10:38:46.309Z,35.10
2018-07-27T10:41:14.661Z,35.50
2018-07-27T10:43:43.536Z,35.60
2018-07-27T10:46:11.708Z,36.20
2018-07-27T10:48:40.455Z,36.20
2018-07-27T10:51:08.614Z,36.20
2018-07-27T10:53:36.805Z,36.00
2018-07-27T10:56:06.428Z,35.60
2018-07-27T10:58:35.258Z,35.90
2018-07-27T11:01:05.239Z,36.00
2018-07-27T11:03:33.841Z,35.90
2018-07-27T11:06:03.245Z,35.70
2018-07-27T11:08:31.423Z,35.50
2018-07-27T11:11:00.804Z,35.60
2018-07-27T11:13:28.996Z,36.00
2018-07-27T11:15:57.312Z,36.30
2018-07-27T11:18:25.429Z,36.30
2018-07-27T11:20:53.601Z,36.50
2018-07-27T11:23:21.783Z,37.00
2018-07-27T11:25:49.953Z,36.80
2018-07-27T11:28:18.104Z,36.40
2018-07-27T11:30:46.288Z,36.20
2018-07-27T11:33:14.748Z,36.00
2018-07-27T11:35:42.897Z,36.10
2018-07-27T11:38:11.929Z,35.70
2018-07-27T11:40:40.148Z,36.20
2018-07-27T11:43:08.896Z,37.30
2018-07-27T11:45:41.864Z,37.80
2018-07-27T11:48:11.004Z,37.20
2018-07-27T11:50:39.144Z,37.00
2018-07-27T11:53:07.359Z,38.00
2018-07-27T11:55:36.391Z,37.60
2018-07-27T11:58:05.990Z,37.60
2018-07-27T12:00:34.263Z,38.00
2018-07-27T12:03:03.178Z,38.50
2018-07-27T12:05:32.016Z,38.40
2018-07-27T12:08:00.857Z,39.00
2018-07-27T12:10:29.369Z,38.90
2018-07-27T12:12:57.541Z,38.90
2018-07-27T12:15:25.991Z,38.00
2018-07-27T12:17:54.467Z,36.60
2018-07-27T12:20:23.291Z,35.10
2018-07-27T12:22:52.220Z,34.90
2018-07-27T12:25:20.380Z,34.40
2018-07-27T12:27:49.539Z,33.80
2018-07-27T12:30:17.712Z,33.30
2018-07-27T12:32:45.882Z,33.40
2018-07-27T12:35:15.508Z,34.10
2018-07-27T12:37:43.680Z,34.20
2018-07-27T12:40:12.848Z,34.20
2018-07-27T12:42:40.977Z,34.70
2018-07-27T12:45:09.946Z,35.80
2018-07-27T12:47:38.620Z,36.60
2018-07-27T12:50:08.383Z,35.70
2018-07-27T12:55:04.879Z,33.90
2018-07-27T12:57:33.165Z,33.70
2018-07-27T13:00:01.334Z,33.60
2018-07-27T13:02:29.878Z,33.70
2018-07-27T13:04:58.074Z,33.60
2018-07-27T13:07:26.254Z,33.00
2018-07-27T13:10:00.350Z,33.10
2018-07-27T13:12:28.528Z,33.90
2018-07-27T13:17:24.808Z,36.00
2018-07-27T13:19:53.572Z,37.40
2018-07-27T13:22:22.737Z,37.00
2018-07-27T13:27:20.439Z,36.10
2018-07-27T13:29:50.428Z,36.20
2018-07-27T13:32:18.733Z,36.40
2018-07-27T13:37:17.777Z,37.10
2018-07-27T13:39:47.104Z,37.00
2018-07-27T13:42:18.579Z,36.70
2018-07-27T13:44:47.409Z,37.00
2018-07-27T13:47:16.602Z,37.70
2018-07-27T13:49:45.984Z,37.80
2018-07-27T13:52:14.135Z,36.60
2018-07-27T13:54:42.745Z,36.10
2018-07-27T13:57:10.891Z,36.20
2018-07-27T13:59:39.031Z,36.00
2018-07-27T14:02:07.662Z,36.00
2018-07-27T14:04:36.188Z,36.50
2018-07-27T14:07:05.277Z,36.50
2018-07-27T14:09:33.809Z,36.30
2018-07-27T14:12:02.012Z,36.00
2018-07-27T14:14:31.045Z,36.80
2018-07-27T14:16:59.216Z,37.20
2018-07-27T14:19:28.324Z,38.00
2018-07-27T14:21:56.468Z,38.00
2018-07-27T14:24:25.229Z,37.90
2018-07-27T14:26:53.379Z,38.80
2018-07-27T14:29:21.802Z,38.90
2018-07-27T14:31:51.065Z,38.50
2018-07-27T14:34:19.882Z,37.70
2018-07-27T14:36:49.416Z,37.30
2018-07-27T14:39:17.484Z,36.40
2018-07-27T14:41:45.620Z,36.20
2018-07-27T14:44:15.233Z,36.70
2018-07-27T14:46:43.347Z,36.50
2018-07-27T14:49:13.762Z,36.40
2018-07-27T14:51:42.450Z,36.40
2018-07-27T14:54:11.752Z,36.10
2018-07-27T14:56:41.578Z,36.20
2018-07-27T14:59:10.370Z,36.30
2018-07-27T15:01:39.144Z,36.40
2018-07-27T15:04:10.076Z,36.80
2018-07-27T15:06:39.768Z,36.90
2018-07-27T15:09:12.948Z,36.80
2018-07-27T15:11:41.480Z,37.20
2018-07-27T15:14:10.972Z,36.50
2018-07-27T15:16:39.610Z,36.10
2018-07-27T15:19:09.764Z,35.80
2018-07-27T15:21:38.001Z,36.40
2018-07-27T15:24:08.426Z,37.30
2018-07-27T15:26:36.586Z,37.50
2018-07-27T15:29:04.803Z,37.40
2018-07-27T15:31:33.844Z,37.90
2018-07-27T15:34:01.996Z,37.80
2018-07-27T15:36:30.238Z,36.60
2018-07-27T15:38:59.587Z,36.10
2018-07-27T15:41:28.784Z,36.40
2018-07-27T15:43:56.910Z,37.30
2018-07-27T15:46:25.110Z,38.60
2018-07-27T15:48:54.189Z,39.10
2018-07-27T15:51:22.656Z,38.90
2018-07-27T15:53:51.789Z,37.80
2018-07-27T15:56:21.157Z,36.90
2018-07-27T15:58:49.292Z,37.40
2018-07-27T16:01:24.634Z,37.70
2018-07-27T16:03:53.584Z,36.10
2018-07-27T16:06:22.849Z,35.90
2018-07-27T16:08:51.944Z,36.50
2018-07-27T16:11:20.059Z,37.20
2018-07-27T16:13:48.962Z,37.60
2018-07-27T16:16:22.803Z,38.10
2018-07-27T16:18:51.899Z,37.10
2018-07-27T16:21:20.215Z,36.30
2018-07-27T16:23:49.980Z,35.80
2018-07-27T16:26:18.272Z,35.50
2018-07-27T16:28:46.419Z,35.80
2018-07-27T16:31:14.928Z,35.60
2018-07-27T16:33:43.465Z,35.90
2018-07-27T16:36:11.836Z,35.60
2018-07-27T16:41:08.340Z,36.50
2018-07-27T16:43:36.564Z,36.00
2018-07-27T16:46:04.710Z,34.90
2018-07-27T16:48:33.214Z,33.90
2018-07-27T16:51:02.936Z,33.70
2018-07-27T16:53:31.660Z,34.10
2018-07-27T16:56:00.039Z,34.10
2018-07-27T16:58:28.236Z,33.90
2018-07-27T17:00:56.800Z,33.50
2018-07-27T17:03:25.567Z,33.10
2018-07-27T17:05:53.775Z,33.00
2018-07-27T17:08:21.900Z,32.70
2018-07-27T17:13:19.161Z,32.10
2018-07-27T17:15:47.356Z,32.10
2018-07-27T17:18:16.524Z,32.10
2018-07-27T17:23:14.562Z,32.20
2018-07-27T17:25:42.751Z,32.40
2018-07-27T17:28:11.008Z,32.20
2018-07-27T17:30:39.951Z,32.00
2018-07-27T17:33:08.151Z,31.90
2018-07-27T17:35:46.047Z,31.70
2018-07-27T17:38:14.833Z,31.70
2018-07-27T17:40:43.009Z,31.60
2018-07-27T17:43:11.242Z,31.50
2018-07-27T17:45:39.327Z,31.50
2018-07-27T17:48:08.308Z,31.60
2018-07-27T17:50:37.172Z,31.60
2018-07-27T17:53:05.284Z,31.50
2018-07-27T17:55:34.864Z,31.40
2018-07-27T17:58:04.020Z,31.40
2018-07-27T18:00:32.973Z,31.30
2018-07-27T18:03:01.420Z,31.30
2018-07-27T18:05:31.054Z,31.20
2018-07-27T18:07:59.240Z,31.10
2018-07-27T18:10:27.373Z,31.00
2018-07-27T18:12:55.981Z,30.90
2018-07-27T18:15:25.321Z,30.80
2018-07-27T18:17:53.892Z,30.70
2018-07-27T18:20:22.439Z,30.60
2018-07-27T18:22:50.584Z,30.50
2018-07-27T18:25:18.910Z,30.50
2018-07-27T18:27:48.081Z,30.50
2018-07-27T18:30:16.900Z,30.40
2018-07-27T18:32:45.938Z,30.40
2018-07-27T18:35:14.833Z,30.40
2018-07-27T18:37:43.531Z,30.40
2018-07-27T18:40:12.524Z,30.30
2018-07-27T18:42:41.092Z,30.20
2018-07-27T18:45:10.236Z,30.20
2018-07-27T18:47:38.744Z,30.10
2018-07-27T18:50:08.552Z,29.80
2018-07-27T18:52:37.932Z,29.30
2018-07-27T18:55:06.473Z,28.70
2018-07-27T18:57:35.679Z,28.30
2018-07-27T19:00:05.365Z,28.10
2018-07-27T19:02:34.416Z,27.90
2018-07-27T19:05:04.410Z,27.80
2018-07-27T19:07:33.660Z,27.70
2018-07-27T19:10:01.793Z,27.60
2018-07-27T19:12:29.997Z,27.40
2018-07-27T19:14:58.172Z,27.40
2018-07-27T19:17:26.630Z,27.20
2018-07-27T19:19:54.768Z,27.10
2018-07-27T19:22:22.928Z,27.00
2018-07-27T19:24:51.148Z,26.80
2018-07-27T19:27:20.627Z,26.70
2018-07-27T19:29:49.656Z,26.60
2018-07-27T19:32:17.820Z,26.70
2018-07-27T19:34:45.977Z,26.60
2018-07-27T19:37:15.182Z,26.60
2018-07-27T19:39:43.742Z,26.60
2018-07-27T19:42:12.176Z,26.40
2018-07-27T19:44:40.354Z,26.40
2018-07-27T19:47:08.620Z,26.40
2018-07-27T19:49:37.469Z,26.40
2018-07-27T19:52:07.484Z,26.40
2018-07-27T19:54:35.631Z,26.40
2018-07-27T19:57:05.684Z,26.40
2018-07-27T19:59:34.296Z,26.30
2018-07-27T20:02:02.519Z,26.10
2018-07-27T20:04:30.981Z,25.90
2018-07-27T20:06:59.491Z,25.70
2018-07-27T20:09:28.533Z,25.50
2018-07-27T20:11:57.128Z,25.50
2018-07-27T20:14:25.329Z,25.60
2018-07-27T20:16:53.469Z,25.60
2018-07-27T20:19:22.003Z,25.60
2018-07-27T20:21:51.484Z,25.60
2018-07-27T20:24:19.916Z,25.60
2018-07-27T20:26:48.084Z,25.70
2018-07-27T20:29:16.301Z,25.70
2018-07-27T20:31:44.435Z,25.60
2018-07-27T20:34:12.964Z,25.60
2018-07-27T20:36:42.224Z,25.50
2018-07-27T20:39:12.744Z,25.40
2018-07-27T20:41:41.367Z,25.40
2018-07-27T20:44:10.195Z,25.40
2018-07-27T20:46:38.625Z,25.40
2018-07-27T20:49:07.201Z,25.40
2018-07-27T20:51:36.453Z,25.30
2018-07-27T20:54:05.321Z,25.30
2018-07-27T20:56:34.157Z,25.20
2018-07-27T20:59:02.394Z,25.20
2018-07-27T21:01:31.876Z,25.10
2018-07-27T21:04:00.072Z,25.00
2018-07-27T21:06:29.049Z,24.80
2018-07-27T21:08:58.935Z,24.60
2018-07-27T21:11:27.185Z,24.50
2018-07-27T21:13:55.945Z,24.40
2018-07-27T21:16:25.581Z,24.20
2018-07-27T21:18:54.440Z,24.10
2018-07-27T21:21:23.600Z,24.00
2018-07-27T21:23:51.719Z,23.80
2018-07-27T21:26:21.513Z,23.70
2018-07-27T21:28:50.406Z,23.60
2018-07-27T21:31:18.601Z,23.70
2018-07-27T21:33:46.777Z,23.70
2018-07-27T21:36:15.405Z,23.70
2018-07-27T21:38:43.615Z,23.70
2018-07-27T21:41:11.787Z,23.70
2018-07-27T21:43:40.226Z,23.60
2018-07-27T21:46:09.606Z,23.60
2018-07-27T21:48:38.322Z,23.50
2018-07-27T21:51:07.497Z,23.40
2018-07-27T21:53:35.673Z,23.30
2018-07-27T21:56:03.848Z,23.20
2018-07-27T21:58:33.344Z,23.10
2018-07-27T22:01:01.574Z,23.10
2018-07-27T22:03:30.592Z,23.10
2018-07-27T22:05:59.687Z,23.10
2018-07-27T22:08:27.876Z,23.10
2018-07-27T22:10:56.025Z,23.00
2018-07-27T22:13:24.261Z,23.00
2018-07-27T22:15:54.945Z,22.90
2018-07-27T22:18:24.264Z,22.80
2018-07-27T22:20:52.755Z,22.80
2018-07-27T22:23:26.130Z,22.90
2018-07-27T22:25:54.316Z,22.90
2018-07-27T22:28:22.476Z,22.80
2018-07-27T22:30:51.057Z,22.80
2018-07-27T22:33:19.220Z,22.80
2018-07-27T22:35:47.676Z,22.80
2018-07-27T22:38:16.500Z,22.70
2018-07-27T22:40:45.651Z,22.60
2018-07-27T22:45:43.380Z,22.30
2018-07-27T22:48:12.154Z,22.10
2018-07-27T22:50:40.320Z,21.90
2018-07-27T22:53:08.469Z,21.90
2018-07-27T22:55:36.596Z,21.90
2018-07-27T22:58:05.601Z,21.90
2018-07-27T23:00:34.384Z,22.10
2018-07-27T23:03:03.496Z,22.20
2018-07-27T23:05:31.656Z,22.30
2018-07-27T23:07:59.884Z,22.30
2018-07-27T23:10:28.018Z,22.30
2018-07-27T23:12:56.155Z,22.30
2018-07-27T23:15:24.568Z,22.20
2018-07-27T23:17:53.213Z,22.20
2018-07-27T23:20:22.176Z,22.20
2018-07-27T23:22:50.619Z,22.20
2018-07-27T23:25:19.025Z,22.10
2018-07-27T23:27:47.192Z,22.00
2018-07-27T23:30:15.644Z,21.90
2018-07-27T23:32:44.183Z,21.80
2018-07-27T23:35:13.195Z,21.60
2018-07-27T23:37:41.596Z,21.40
2018-07-27T23:40:10.925Z,21.20
2018-07-27T23:42:39.768Z,21.00
2018-07-27T23:45:09.208Z,20.90
2018-07-27T23:47:38.132Z,21.00
2018-07-27T23:50:08.308Z,21.20
2018-07-27T23:52:36.473Z,21.40
2018-07-27T23:55:04.761Z,21.40
2018-07-27T23:57:32.912Z,21.40
